createdAt,value
2023-11-18T00:00:39.690Z,1021.73
2023-11-18T00:02:37.142Z,1021.66
2023-11-18T00:04:36.804Z,1021.66
2023-11-18T00:06:36.165Z,1021.55
2023-11-18T00:08:37.157Z,1021.55
2023-11-18T00:10:36.711Z,1021.56
2023-11-18T00:12:36.780Z,1021.56
2023-11-18T00:14:36.631Z,1021.55
2023-11-18T00:16:36.523Z,1021.55
2023-11-18T00:18:36.788Z,1021.6
2023-11-18T00:20:36.969Z,1021.6
2023-11-18T00:22:36.038Z,1021.55
2023-11-18T00:24:36.579Z,1021.55
2023-11-18T00:26:36.283Z,1021.61
2023-11-18T00:28:36.621Z,1021.61
2023-11-18T00:30:36.578Z,1021.58
2023-11-18T00:32:36.987Z,1021.58
2023-11-18T00:34:36.531Z,1021.65
2023-11-18T00:36:36.000Z,1021.65
2023-11-18T00:38:36.605Z,1021.75
2023-11-18T00:40:36.588Z,1021.75
2023-11-18T00:42:36.683Z,1021.59
2023-11-18T00:44:36.431Z,1021.59
2023-11-18T00:46:37.163Z,1021.59
2023-11-18T00:48:36.339Z,1021.59
2023-11-18T00:50:37.194Z,1021.7
2023-11-18T00:52:36.432Z,1021.7
2023-11-18T00:54:35.992Z,1021.66
2023-11-18T00:56:36.603Z,1021.66
2023-11-18T00:58:36.241Z,1021.72
2023-11-18T01:00:40.807Z,1021.73
2023-11-18T01:02:36.733Z,1021.73
2023-11-18T01:04:36.513Z,1021.65
2023-11-18T01:06:35.858Z,1021.65
2023-11-18T01:08:36.515Z,1021.63
2023-11-18T01:10:36.350Z,1021.63
2023-11-18T01:12:43.599Z,1021.55
2023-11-18T01:14:37.317Z,1021.55
2023-11-18T01:16:36.482Z,1021.63
2023-11-18T01:18:36.840Z,1021.63
2023-11-18T01:20:36.793Z,1021.58
2023-11-18T01:22:36.196Z,1021.58
2023-11-18T01:24:36.653Z,1021.6
2023-11-18T01:26:36.464Z,1021.6
2023-11-18T01:28:36.945Z,1021.81
2023-11-18T01:30:36.523Z,1021.81
2023-11-18T01:32:36.816Z,1021.83
2023-11-18T01:34:36.607Z,1021.83
2023-11-18T01:36:36.090Z,1021.95
2023-11-18T01:38:36.777Z,1021.95
2023-11-18T01:40:36.603Z,1021.82
2023-11-18T01:42:38.759Z,1021.82
2023-11-18T01:44:36.504Z,1021.87
2023-11-18T01:46:36.293Z,1021.87
2023-11-18T01:48:36.598Z,1021.89
2023-11-18T01:50:36.567Z,1021.89
2023-11-18T01:52:36.782Z,1021.87
2023-11-18T01:54:36.527Z,1021.87
2023-11-18T01:56:36.102Z,1021.83
2023-11-18T01:58:36.513Z,1021.83
2023-11-18T02:00:37.464Z,1021.81
2023-11-18T02:02:36.816Z,1021.81
2023-11-18T02:04:37.204Z,1021.82
2023-11-18T02:06:36.082Z,1021.82
2023-11-18T02:08:36.736Z,1021.87
2023-11-18T02:10:36.393Z,1021.87
2023-11-18T02:12:36.788Z,1022.04
2023-11-18T02:14:36.423Z,1022.04
2023-11-18T02:16:36.245Z,1021.83
2023-11-18T02:18:37.262Z,1021.83
2023-11-18T02:20:36.636Z,1021.84
2023-11-18T02:22:35.999Z,1021.84
2023-11-18T02:24:36.598Z,1021.63
2023-11-18T02:26:36.241Z,1021.63
2023-11-18T02:28:36.787Z,1021.59
2023-11-18T02:30:36.513Z,1021.59
2023-11-18T02:32:36.980Z,1021.55
2023-11-18T02:34:36.671Z,1021.55
2023-11-18T02:36:36.610Z,1021.54
2023-11-18T02:38:38.990Z,1021.54
2023-11-18T02:42:36.646Z,1021.44
2023-11-18T02:44:36.268Z,1021.43
2023-11-18T02:46:37.212Z,1021.43
2023-11-18T02:48:36.426Z,1021.51
2023-11-18T02:50:36.339Z,1021.51
2023-11-18T02:52:36.653Z,1021.36
2023-11-18T02:54:36.332Z,1021.36
2023-11-18T02:56:35.953Z,1021.32
2023-11-18T02:58:39.769Z,1021.32
2023-11-18T03:00:39.322Z,1021.39
2023-11-18T03:02:37.405Z,1021.39
2023-11-18T03:04:36.954Z,1021.35
2023-11-18T03:06:36.255Z,1021.35
2023-11-18T03:08:36.991Z,1021.23
2023-11-18T03:10:36.992Z,1021.23
2023-11-18T03:12:39.274Z,1021.29
2023-11-18T03:14:35.880Z,1021.29
2023-11-18T03:16:36.698Z,1021.15
2023-11-18T03:18:36.013Z,1021.15
2023-11-18T03:20:36.847Z,1021.05
2023-11-18T03:22:36.304Z,1021.05
2023-11-18T03:24:36.089Z,1020.92
2023-11-18T03:26:36.711Z,1020.92
2023-11-18T03:28:36.296Z,1020.72
2023-11-18T03:30:36.224Z,1020.72
2023-11-18T03:32:36.713Z,1020.71
2023-11-18T03:34:36.526Z,1020.71
2023-11-18T03:36:36.896Z,1020.6
2023-11-18T03:38:36.444Z,1020.6
2023-11-18T03:40:36.356Z,1020.61
2023-11-18T03:42:36.638Z,1020.61
2023-11-18T03:44:36.350Z,1020.54
2023-11-18T03:46:37.158Z,1020.54
2023-11-18T03:48:36.568Z,1020.37
2023-11-18T03:50:36.405Z,1020.37
2023-11-18T03:52:36.206Z,1020.55
2023-11-18T03:54:36.604Z,1020.55
2023-11-18T03:56:36.164Z,1020.48
2023-11-18T03:58:36.723Z,1020.48
2023-11-18T04:00:39.675Z,1020.38
2023-11-18T04:02:36.757Z,1020.38
2023-11-18T04:04:36.325Z,1020.3
2023-11-18T04:06:36.713Z,1020.3
2023-11-18T04:08:36.567Z,1020.07
2023-11-18T04:10:36.468Z,1020.07
2023-11-18T04:12:36.052Z,1020.07
2023-11-18T04:14:36.713Z,1020.07
2023-11-18T04:16:36.265Z,1020.03
2023-11-18T04:18:36.988Z,1020.03
2023-11-18T04:20:36.666Z,1020.04
2023-11-18T04:22:35.885Z,1020.04
2023-11-18T04:24:36.512Z,1020.08
2023-11-18T04:26:36.228Z,1020.02
2023-11-18T04:28:36.953Z,1020.02
2023-11-18T04:30:36.618Z,1019.95
2023-11-18T04:32:36.436Z,1019.95
2023-11-18T04:34:36.721Z,1019.95
2023-11-18T04:36:36.237Z,1019.95
2023-11-18T04:38:36.854Z,1019.93
2023-11-18T04:40:36.653Z,1019.93
2023-11-18T04:42:36.271Z,1019.9
2023-11-18T04:46:36.259Z,1019.88
2023-11-18T04:48:38.813Z,1019.88
2023-11-18T04:50:36.980Z,1019.85
2023-11-18T04:52:36.416Z,1019.85
2023-11-18T04:54:36.735Z,1019.72
2023-11-18T04:56:36.638Z,1019.72
2023-11-18T04:58:36.260Z,1019.64
2023-11-18T05:00:37.890Z,1019.64
2023-11-18T05:02:37.178Z,1019.6
2023-11-18T05:04:36.731Z,1019.6
2023-11-18T05:06:36.744Z,1019.48
2023-11-18T05:08:36.838Z,1019.48
2023-11-18T05:10:36.249Z,1019.37
2023-11-18T05:12:36.723Z,1019.37
2023-11-18T05:14:36.626Z,1019.25
2023-11-18T05:16:36.277Z,1019.25
2023-11-18T05:18:37.753Z,1019.26
2023-11-18T05:20:36.947Z,1019.26
2023-11-18T05:22:36.312Z,1019.43
2023-11-18T05:24:35.910Z,1019.43
2023-11-18T05:26:36.794Z,1019.32
2023-11-18T05:28:36.311Z,1019.32
2023-11-18T05:30:37.285Z,1019.18
2023-11-18T05:32:36.779Z,1019.18
2023-11-18T05:34:35.957Z,1019.27
2023-11-18T05:36:36.714Z,1019.27
2023-11-18T05:38:36.708Z,1019.24
2023-11-18T05:40:36.210Z,1019.24
2023-11-18T05:42:38.664Z,1019.15
2023-11-18T05:44:35.875Z,1019.15
2023-11-18T05:46:36.853Z,1018.93
2023-11-18T05:48:36.436Z,1018.93
2023-11-18T05:50:37.135Z,1018.93
2023-11-18T05:52:36.654Z,1018.93
2023-11-18T05:54:35.923Z,1018.94
2023-11-18T05:56:37.015Z,1018.94
2023-11-18T05:58:36.176Z,1018.98
2023-11-18T06:00:50.748Z,1018.98
2023-11-18T06:02:36.504Z,1018.83
2023-11-18T06:04:37.016Z,1018.83
2023-11-18T06:06:36.748Z,1018.9
2023-11-18T06:08:36.296Z,1018.9
2023-11-18T06:10:37.030Z,1018.67
2023-11-18T06:12:36.322Z,1018.67
2023-11-18T06:14:36.268Z,1018.74
2023-11-18T06:16:36.945Z,1018.74
2023-11-18T06:18:36.409Z,1018.84
2023-11-18T06:20:37.066Z,1018.84
2023-11-18T06:22:38.157Z,1018.83
2023-11-18T06:24:36.874Z,1018.83
2023-11-18T06:26:36.531Z,1018.77
2023-11-18T06:28:36.097Z,1018.77
2023-11-18T06:30:36.615Z,1018.69
2023-11-18T06:32:36.694Z,1018.69
2023-11-18T06:34:37.060Z,1018.61
2023-11-18T06:36:36.318Z,1018.61
2023-11-18T06:38:36.095Z,1018.73
2023-11-18T06:40:36.759Z,1018.73
2023-11-18T06:42:36.297Z,1018.63
2023-11-18T06:44:37.097Z,1018.63
2023-11-18T06:46:37.144Z,1018.56
2023-11-18T06:48:37.155Z,1018.56
2023-11-18T06:50:36.539Z,1018.58
2023-11-18T06:52:36.985Z,1018.58
2023-11-18T06:54:36.518Z,1018.64
2023-11-18T06:56:35.915Z,1018.64
2023-11-18T06:58:36.578Z,1018.66
2023-11-18T07:00:38.917Z,1018.66
2023-11-18T07:02:36.163Z,1018.66
2023-11-18T07:04:36.866Z,1018.66
2023-11-18T07:06:36.567Z,1018.68
2023-11-18T07:08:36.194Z,1018.68
2023-11-18T07:10:36.725Z,1018.71
2023-11-18T07:12:36.190Z,1018.71
2023-11-18T07:14:36.891Z,1018.57
2023-11-18T07:16:36.805Z,1018.57
2023-11-18T07:18:36.047Z,1018.7
2023-11-18T07:20:36.955Z,1018.7
2023-11-18T07:22:36.343Z,1018.77
2023-11-18T07:24:36.747Z,1018.77
2023-11-18T07:26:36.437Z,1018.85
2023-11-18T07:28:35.901Z,1018.85
2023-11-18T07:30:36.741Z,1018.71
2023-11-18T07:32:36.469Z,1018.71
2023-11-18T07:34:35.872Z,1018.58
2023-11-18T07:36:36.588Z,1018.58
2023-11-18T07:38:36.202Z,1018.42
2023-11-18T07:40:36.763Z,1018.42
2023-11-18T07:42:36.264Z,1018.33
2023-11-18T07:44:37.886Z,1018.33
2023-11-18T07:46:36.261Z,1018.37
2023-11-18T07:48:37.110Z,1018.24
2023-11-18T07:50:36.773Z,1018.24
2023-11-18T07:52:36.803Z,1018.12
2023-11-18T07:54:36.581Z,1018.12
2023-11-18T07:56:36.203Z,1018.16
2023-11-18T07:58:36.772Z,1018.16
2023-11-18T08:00:38.711Z,1018.19
2023-11-18T08:02:40.846Z,1018.19
2023-11-18T08:04:36.839Z,1018.25
2023-11-18T08:06:36.000Z,1018.25
2023-11-18T08:08:36.869Z,1018.3
2023-11-18T08:10:39.934Z,1018.3
2023-11-18T08:12:36.826Z,1018.31
2023-11-18T08:14:36.390Z,1018.31
2023-11-18T08:16:37.808Z,1018.13
2023-11-18T08:18:36.972Z,1018.13
2023-11-18T08:20:36.428Z,1018.28
2023-11-18T08:22:36.862Z,1018.28
2023-11-18T08:24:36.436Z,1018.21
2023-11-18T08:26:36.308Z,1018.21
2023-11-18T08:28:36.677Z,1018.16
2023-11-18T08:30:36.294Z,1018.16
2023-11-18T08:32:37.149Z,1017.86
2023-11-18T08:34:36.695Z,1017.86
2023-11-18T08:36:36.080Z,1017.7
2023-11-18T08:38:37.317Z,1017.7
2023-11-18T08:40:36.432Z,1017.52
2023-11-18T08:42:36.907Z,1017.52
2023-11-18T08:44:56.467Z,1017.58
2023-11-18T08:46:36.212Z,1017.58
2023-11-18T08:48:36.843Z,1017.54
2023-11-18T08:50:37.161Z,1017.54
2023-11-18T08:52:36.159Z,1017.51
2023-11-18T08:54:36.764Z,1017.51
2023-11-18T08:56:36.840Z,1017.21
2023-11-18T08:58:36.008Z,1017.21
2023-11-18T09:00:38.795Z,1016.99
2023-11-18T09:02:49.928Z,1016.99
2023-11-18T09:04:36.770Z,1016.99
2023-11-18T09:06:36.618Z,1016.99
2023-11-18T09:08:36.762Z,1017.02
2023-11-18T09:10:36.448Z,1017.02
2023-11-18T09:12:36.702Z,1016.84
2023-11-18T09:14:37.660Z,1016.84
2023-11-18T09:16:36.012Z,1016.85
2023-11-18T09:18:40.479Z,1016.85
2023-11-18T09:20:36.366Z,1016.81
2023-11-18T09:22:36.843Z,1016.81
2023-11-18T09:24:36.377Z,1016.78
2023-11-18T09:26:37.074Z,1016.78
2023-11-18T09:28:36.377Z,1016.87
2023-11-18T09:30:36.319Z,1016.87
2023-11-18T09:32:37.083Z,1016.92
2023-11-18T09:34:36.250Z,1016.92
2023-11-18T09:36:36.852Z,1016.73
2023-11-18T09:38:36.652Z,1016.73
2023-11-18T09:40:36.345Z,1016.73
2023-11-18T09:42:36.706Z,1016.73
2023-11-18T09:44:36.431Z,1016.74
2023-11-18T09:46:36.110Z,1016.74
2023-11-18T09:48:36.807Z,1016.65
2023-11-18T09:50:36.671Z,1016.65
2023-11-18T09:52:36.881Z,1016.79
2023-11-18T09:54:36.345Z,1016.79
2023-11-18T09:56:36.113Z,1016.74
2023-11-18T09:58:36.510Z,1016.74
2023-11-18T10:00:39.848Z,1016.75
2023-11-18T10:02:36.450Z,1016.75
2023-11-18T10:04:36.890Z,1016.78
2023-11-18T10:06:36.387Z,1016.78
2023-11-18T10:08:37.111Z,1016.56
2023-11-18T10:12:36.880Z,1016.48
2023-11-18T10:14:36.990Z,1016.48
2023-11-18T10:16:36.271Z,1016.42
2023-11-18T10:18:37.556Z,1016.42
2023-11-18T10:20:37.594Z,1016.33
2023-11-18T10:22:39.074Z,1016.33
2023-11-18T10:24:36.513Z,1016.16
2023-11-18T10:26:36.523Z,1016.16
2023-11-18T10:28:39.581Z,1016.27
2023-11-18T10:30:36.337Z,1016.27
2023-11-18T10:32:37.473Z,1016.05
2023-11-18T10:34:39.483Z,1016.05
2023-11-18T10:36:37.288Z,1016.08
2023-11-18T10:38:36.521Z,1016.08
2023-11-18T10:40:36.980Z,1015.79
2023-11-18T10:42:36.586Z,1015.79
2023-11-18T10:44:36.300Z,1015.5
2023-11-18T10:46:37.433Z,1015.5
2023-11-18T10:48:36.577Z,1015.33
2023-11-18T10:50:36.286Z,1015.33
2023-11-18T10:52:39.943Z,1014.88
2023-11-18T10:54:36.317Z,1014.88
2023-11-18T10:56:37.281Z,1014.18
2023-11-18T10:58:39.432Z,1014.18
2023-11-18T11:00:39.777Z,1014.51
2023-11-18T11:02:36.800Z,1014.51
2023-11-18T11:04:39.310Z,1014.77
2023-11-18T11:06:36.440Z,1014.77
2023-11-18T11:08:47.707Z,1014.58
2023-11-18T11:10:36.839Z,1014.58
2023-11-18T11:12:36.413Z,1014.32
2023-11-18T11:14:36.628Z,1014.28
2023-11-18T11:16:36.831Z,1014.28
2023-11-18T11:18:36.867Z,1014.17
2023-11-18T11:20:37.514Z,1014.17
2023-11-18T11:22:37.900Z,1013.95
2023-11-18T11:24:36.463Z,1013.95
2023-11-18T11:26:37.536Z,1013.62
2023-11-18T11:28:36.438Z,1013.62
2023-11-18T11:30:37.520Z,1013.49
2023-11-18T11:32:37.525Z,1013.49
2023-11-18T11:34:41.494Z,1013.47
2023-11-18T11:36:36.625Z,1013.47
2023-11-18T11:38:36.239Z,1013.42
2023-11-18T11:40:36.659Z,1013.42
2023-11-18T11:42:36.200Z,1013.23
2023-11-18T11:44:40.851Z,1013.23
2023-11-18T11:46:36.456Z,1013.19
2023-11-18T11:48:37.247Z,1013.19
2023-11-18T11:50:37.321Z,1012.98
2023-11-18T11:52:36.118Z,1012.98
2023-11-18T11:54:36.666Z,1013.03
2023-11-18T11:56:36.296Z,1013.03
2023-11-18T11:58:35.930Z,1013.15
2023-11-18T12:00:36.996Z,1013.15
2023-11-18T12:02:37.576Z,1013.23
2023-11-18T12:04:36.571Z,1013.23
2023-11-18T12:06:37.476Z,1013.34
2023-11-18T12:08:36.784Z,1013.34
2023-11-18T12:10:36.434Z,1012.57
2023-11-18T12:12:36.700Z,1012.57
2023-11-18T12:14:36.680Z,1012.45
2023-11-18T12:16:36.174Z,1012.45
2023-11-18T12:18:36.736Z,1012.57
2023-11-18T12:20:36.781Z,1012.57
2023-11-18T12:22:37.792Z,1012.65
2023-11-18T12:24:36.562Z,1012.65
2023-11-18T12:26:36.162Z,1012.66
2023-11-18T12:28:36.971Z,1012.66
2023-11-18T12:30:40.076Z,1012.54
2023-11-18T12:32:36.804Z,1012.54
2023-11-18T12:34:36.484Z,1012.46
2023-11-18T12:36:36.120Z,1012.46
2023-11-18T12:38:37.341Z,1012.23
2023-11-18T12:40:36.424Z,1012.23
2023-11-18T12:42:36.877Z,1012.1
2023-11-18T12:44:36.779Z,1012.1
2023-11-18T12:46:36.182Z,1012.17
2023-11-18T12:48:36.947Z,1012.17
2023-11-18T12:50:36.794Z,1011.97
2023-11-18T12:52:36.276Z,1011.97
2023-11-18T12:54:36.921Z,1011.74
2023-11-18T12:56:36.812Z,1011.74
2023-11-18T12:58:36.228Z,1011.54
2023-11-18T13:00:39.254Z,1011.54
2023-11-18T13:02:36.879Z,1011.44
2023-11-18T13:04:37.120Z,1011.44
2023-11-18T13:06:36.780Z,1011.32
2023-11-18T13:08:37.171Z,1011.32
2023-11-18T13:10:36.434Z,1011.32
2023-11-18T13:12:39.279Z,1011.32
2023-11-18T13:14:36.625Z,1011.21
2023-11-18T13:16:36.403Z,1011.21
2023-11-18T13:18:36.825Z,1011.09
2023-11-18T13:20:36.565Z,1011.09
2023-11-18T13:22:54.339Z,1011.1
2023-11-18T13:24:40.167Z,1011.1
2023-11-18T13:26:36.396Z,1011.01
2023-11-18T13:28:36.532Z,1011.01
2023-11-18T13:30:39.030Z,1010.96
2023-11-18T13:32:36.673Z,1010.96
2023-11-18T13:34:36.437Z,1010.82
2023-11-18T13:36:36.857Z,1010.82
2023-11-18T13:38:36.484Z,1010.78
2023-11-18T13:40:37.043Z,1010.78
2023-11-18T13:42:39.366Z,1010.53
2023-11-18T13:44:36.125Z,1010.53
2023-11-18T13:48:36.701Z,1010.46
2023-11-18T13:50:36.300Z,1010.45
2023-11-18T13:52:36.682Z,1010.45
2023-11-18T13:54:36.401Z,1010.58
2023-11-18T13:56:36.070Z,1010.58
2023-11-18T13:58:36.710Z,1010.42
2023-11-18T14:00:43.623Z,1010.42
2023-11-18T14:02:37.564Z,1010.6
2023-11-18T14:04:36.191Z,1010.6
2023-11-18T14:06:36.589Z,1010.47
2023-11-18T14:08:36.607Z,1010.47
2023-11-18T14:10:36.956Z,1010.14
2023-11-18T14:12:36.511Z,1010.14
2023-11-18T14:14:36.332Z,1010.05
2023-11-18T14:16:37.505Z,1010.05
2023-11-18T14:18:36.420Z,1010
2023-11-18T14:20:36.349Z,1010
2023-11-18T14:22:36.597Z,1009.87
2023-11-18T14:24:36.029Z,1009.87
2023-11-18T14:26:36.967Z,1009.92
2023-11-18T14:28:36.368Z,1009.92
2023-11-18T14:30:36.080Z,1009.75
2023-11-18T14:32:36.804Z,1009.75
2023-11-18T14:34:36.177Z,1009.9
2023-11-18T14:36:36.736Z,1009.59
2023-11-18T14:38:36.774Z,1009.59
2023-11-18T14:40:37.012Z,1009.61
2023-11-18T14:42:36.663Z,1009.61
2023-11-18T14:44:36.977Z,1009.46
2023-11-18T14:46:38.088Z,1009.46
2023-11-18T14:48:36.432Z,1009.36
2023-11-18T14:50:36.687Z,1009.36
2023-11-18T14:52:36.648Z,1009.26
2023-11-18T14:54:36.133Z,1009.26
2023-11-18T14:56:36.912Z,1009.14
2023-11-18T14:58:36.459Z,1009.14
2023-11-18T15:00:39.086Z,1009.22
2023-11-18T15:02:36.634Z,1009.22
2023-11-18T15:04:36.358Z,1009.13
2023-11-18T15:06:36.649Z,1009.13
2023-11-18T15:08:39.495Z,1009.01
2023-11-18T15:10:36.480Z,1009.01
2023-11-18T15:12:36.748Z,1008.82
2023-11-18T15:14:38.646Z,1008.82
2023-11-18T15:16:35.991Z,1009.02
2023-11-18T15:18:36.862Z,1009.02
2023-11-18T15:20:36.650Z,1008.78
2023-11-18T15:22:36.542Z,1008.78
2023-11-18T15:24:36.163Z,1008.8
2023-11-18T15:26:36.948Z,1008.8
2023-11-18T15:28:36.081Z,1008.73
2023-11-18T15:30:36.945Z,1008.73
2023-11-18T15:32:39.454Z,1008.49
2023-11-18T15:34:35.797Z,1008.49
2023-11-18T15:36:36.490Z,1008.53
2023-11-18T15:38:37.416Z,1008.53
2023-11-18T15:40:36.923Z,1008.08
2023-11-18T15:42:36.248Z,1008.08
2023-11-18T15:44:36.902Z,1008.16
2023-11-18T15:46:36.648Z,1008.16
2023-11-18T15:48:36.150Z,1008.21
2023-11-18T15:50:39.114Z,1008.21
2023-11-18T15:52:36.304Z,1008.06
2023-11-18T15:54:36.000Z,1008.06
2023-11-18T15:56:36.763Z,1008.04
2023-11-18T15:58:36.188Z,1008.04
2023-11-18T16:00:39.526Z,1008.02
2023-11-18T16:02:36.782Z,1008.02
2023-11-18T16:04:36.242Z,1008.05
2023-11-18T16:06:36.902Z,1008.05
2023-11-18T16:08:36.677Z,1008.05
2023-11-18T16:10:36.095Z,1008.05
2023-11-18T16:12:36.576Z,1008
2023-11-18T16:14:36.919Z,1008
2023-11-18T16:16:36.796Z,1008.03
2023-11-18T16:18:37.320Z,1008.03
2023-11-18T16:20:38.555Z,1007.98
2023-11-18T16:22:36.645Z,1007.98
2023-11-18T16:24:36.211Z,1007.84
2023-11-18T16:26:37.146Z,1007.84
2023-11-18T16:28:36.370Z,1007.87
2023-11-18T16:30:36.268Z,1007.87
2023-11-18T16:32:37.003Z,1007.68
2023-11-18T16:34:35.810Z,1007.68
2023-11-18T16:36:40.176Z,1007.67
2023-11-18T16:38:36.424Z,1007.67
2023-11-18T16:40:37.566Z,1007.69
2023-11-18T16:42:36.494Z,1007.69
2023-11-18T16:44:36.256Z,1007.69
2023-11-18T16:46:36.796Z,1007.69
2023-11-18T16:48:36.531Z,1007.61
2023-11-18T16:50:38.928Z,1007.61
2023-11-18T16:52:39.193Z,1007.78
2023-11-18T16:54:50.835Z,1007.78
2023-11-18T16:56:36.540Z,1007.69
2023-11-18T16:58:36.369Z,1007.69
2023-11-18T17:00:41.904Z,1007.67
2023-11-18T17:02:37.391Z,1007.67
2023-11-18T17:04:36.998Z,1007.62
2023-11-18T17:06:35.998Z,1007.62
2023-11-18T17:08:37.664Z,1007.74
2023-11-18T17:10:36.605Z,1007.74
2023-11-18T17:12:36.909Z,1007.71
2023-11-18T17:14:36.679Z,1007.71
2023-11-18T17:16:38.130Z,1007.75
2023-11-18T17:18:38.203Z,1007.75
2023-11-18T17:20:37.256Z,1007.64
2023-11-18T17:22:36.468Z,1007.64
2023-11-18T17:24:36.821Z,1007.78
2023-11-18T17:26:36.711Z,1007.78
2023-11-18T17:28:39.582Z,1007.7
2023-11-18T17:30:36.770Z,1007.7
2023-11-18T17:32:37.367Z,1007.69
2023-11-18T17:34:36.055Z,1007.69
2023-11-18T17:36:36.635Z,1007.41
2023-11-18T17:38:36.624Z,1007.41
2023-11-18T17:40:37.104Z,1007.47
2023-11-18T17:42:36.327Z,1007.47
2023-11-18T17:44:36.971Z,1007.27
2023-11-18T17:46:36.622Z,1007.27
2023-11-18T17:48:36.467Z,1007.37
2023-11-18T17:50:37.649Z,1007.37
2023-11-18T17:52:36.362Z,1007.38
2023-11-18T17:54:36.860Z,1007.38
2023-11-18T17:56:36.756Z,1007.26
2023-11-18T17:58:36.091Z,1007.26
2023-11-18T18:00:38.721Z,1007.19
2023-11-18T18:04:36.203Z,1007.27
2023-11-18T18:06:36.541Z,1007.25
2023-11-18T18:08:36.491Z,1007.25
2023-11-18T18:10:36.963Z,1007.46
2023-11-18T18:12:36.558Z,1007.46
2023-11-18T18:14:36.251Z,1007.34
2023-11-18T18:16:36.949Z,1007.34
2023-11-18T18:18:36.592Z,1007.36
2023-11-18T18:20:37.040Z,1007.36
2023-11-18T18:22:36.680Z,1007.36
2023-11-18T18:24:36.274Z,1007.36
2023-11-18T18:26:37.027Z,1007.55
2023-11-18T18:28:36.411Z,1007.55
2023-11-18T18:30:36.236Z,1007.63
2023-11-18T18:32:36.779Z,1007.63
2023-11-18T18:34:36.188Z,1007.49
2023-11-18T18:36:36.736Z,1007.49
2023-11-18T18:38:36.444Z,1007.46
2023-11-18T18:40:36.835Z,1007.46
2023-11-18T18:42:36.300Z,1007.4
2023-11-18T18:44:36.966Z,1007.4
2023-11-18T18:46:36.507Z,1007.53
2023-11-18T18:48:36.209Z,1007.53
2023-11-18T18:50:37.200Z,1007.48
2023-11-18T18:52:36.085Z,1007.48
2023-11-18T18:54:36.715Z,1007.45
2023-11-18T18:56:36.678Z,1007.45
2023-11-18T18:58:36.830Z,1007.45
2023-11-18T19:00:38.653Z,1007.45
2023-11-18T19:02:37.976Z,1007.28
2023-11-18T19:04:37.057Z,1007.28
2023-11-18T19:06:36.371Z,1007.33
2023-11-18T19:08:36.091Z,1007.33
2023-11-18T19:10:37.853Z,1007.37
2023-11-18T19:12:36.215Z,1007.37
2023-11-18T19:14:37.106Z,1007.48
2023-11-18T19:16:36.409Z,1007.48
2023-11-18T19:18:37.095Z,1007.41
2023-11-18T19:20:36.719Z,1007.41
2023-11-18T19:22:36.459Z,1007.27
2023-11-18T19:24:36.842Z,1007.27
2023-11-18T19:26:36.743Z,1007.26
2023-11-18T19:28:36.643Z,1007.26
2023-11-18T19:30:36.150Z,1007.32
2023-11-18T19:32:36.787Z,1007.32
2023-11-18T19:34:36.232Z,1007.32
2023-11-18T19:36:36.786Z,1007.32
2023-11-18T19:38:36.802Z,1007.1
2023-11-18T19:40:36.682Z,1007.1
2023-11-18T19:42:36.659Z,1007
2023-11-18T19:44:36.642Z,1007
2023-11-18T19:46:36.303Z,1007.06
2023-11-18T19:48:36.789Z,1007.06
2023-11-18T19:50:39.347Z,1007.01
2023-11-18T19:52:35.899Z,1007.01
2023-11-18T19:54:36.500Z,1006.88
2023-11-18T19:56:36.208Z,1006.88
2023-11-18T19:58:36.779Z,1006.96
2023-11-18T20:00:39.695Z,1006.96
2023-11-18T20:02:37.051Z,1006.79
2023-11-18T20:04:36.437Z,1006.79
2023-11-18T20:06:35.963Z,1006.82
2023-11-18T20:08:36.758Z,1006.82
2023-11-18T20:10:36.398Z,1006.76
2023-11-18T20:12:42.488Z,1006.76
2023-11-18T20:14:36.772Z,1006.95
2023-11-18T20:16:36.349Z,1006.95
2023-11-18T20:18:36.954Z,1007.09
2023-11-18T20:20:36.726Z,1007.09
2023-11-18T20:22:36.146Z,1006.95
2023-11-18T20:24:36.499Z,1006.95
2023-11-18T20:26:36.435Z,1006.81
2023-11-18T20:28:36.761Z,1006.81
2023-11-18T20:30:36.666Z,1006.93
2023-11-18T20:32:38.401Z,1006.93
2023-11-18T20:34:37.330Z,1006.91
2023-11-18T20:36:36.310Z,1006.91
2023-11-18T20:38:36.303Z,1006.86
2023-11-18T20:40:36.807Z,1006.86
2023-11-18T20:42:36.356Z,1007
2023-11-18T20:44:39.227Z,1007
2023-11-18T20:46:36.672Z,1006.88
2023-11-18T20:48:36.454Z,1006.88
2023-11-18T20:50:36.491Z,1006.73
2023-11-18T20:52:36.783Z,1006.73
2023-11-18T20:54:36.483Z,1006.79
2023-11-18T20:58:36.725Z,1006.67
2023-11-18T21:00:39.588Z,1006.67
2023-11-18T21:02:37.382Z,1006.65
2023-11-18T21:04:37.394Z,1006.65
2023-11-18T21:06:45.011Z,1006.63
2023-11-18T21:08:36.697Z,1006.63
2023-11-18T21:10:39.315Z,1006.69
2023-11-18T21:12:42.337Z,1006.72
2023-11-18T21:16:36.153Z,1006.72
2023-11-18T21:18:36.752Z,1006.83
2023-11-18T21:20:37.326Z,1006.83
2023-11-18T21:22:36.252Z,1006.54
2023-11-18T21:24:36.623Z,1006.4
2023-11-18T21:26:36.171Z,1006.4
2023-11-18T21:28:39.483Z,1006.57
2023-11-18T21:30:36.240Z,1006.57
2023-11-18T21:32:37.202Z,1006.54
2023-11-18T21:34:36.261Z,1006.54
2023-11-18T21:36:35.977Z,1006.39
2023-11-18T21:38:37.021Z,1006.39
2023-11-18T21:40:36.464Z,1006.35
2023-11-18T21:42:38.147Z,1006.35
2023-11-18T21:44:37.040Z,1006.5
2023-11-18T21:46:36.513Z,1006.5
2023-11-18T21:48:36.131Z,1006.49
2023-11-18T21:50:36.884Z,1006.49
2023-11-18T21:52:36.072Z,1006.55
2023-11-18T21:54:36.776Z,1006.55
2023-11-18T21:56:36.702Z,1006.53
2023-11-18T21:58:36.451Z,1006.53
2023-11-18T22:00:45.352Z,1006.32
2023-11-18T22:02:37.503Z,1006.32
2023-11-18T22:06:36.171Z,1006.4
2023-11-18T22:08:36.906Z,1006.27
2023-11-18T22:10:36.614Z,1006.27
2023-11-18T22:12:36.142Z,1006.21
2023-11-18T22:14:37.030Z,1006.21
2023-11-18T22:16:36.560Z,1006.31
2023-11-18T22:18:36.149Z,1006.31
2023-11-18T22:20:37.999Z,1006.34
2023-11-18T22:22:45.804Z,1006.34
2023-11-18T22:24:36.003Z,1006.34
2023-11-18T22:26:36.672Z,1006.34
2023-11-18T22:28:36.402Z,1006.34
2023-11-18T22:30:36.606Z,1006.34
2023-11-18T22:32:40.002Z,1006.37
2023-11-18T22:34:36.450Z,1006.37
2023-11-18T22:36:36.168Z,1006.44
2023-11-18T22:38:36.835Z,1006.44
2023-11-18T22:40:36.673Z,1006.4
2023-11-18T22:42:36.204Z,1006.4
2023-11-18T22:44:48.682Z,1006.46
2023-11-18T22:46:36.720Z,1006.46
2023-11-18T22:48:36.050Z,1006.5
2023-11-18T22:50:37.235Z,1006.5
2023-11-18T22:52:36.233Z,1006.33
2023-11-18T22:54:35.964Z,1006.33
2023-11-18T22:56:36.716Z,1006.43
2023-11-18T22:58:36.321Z,1006.43
2023-11-18T23:00:36.636Z,1006.51
2023-11-18T23:02:36.897Z,1006.51
2023-11-18T23:04:36.513Z,1006.4
2023-11-18T23:06:45.210Z,1006.4
2023-11-18T23:08:36.593Z,1006.35
2023-11-18T23:10:36.230Z,1006.35
2023-11-18T23:12:35.928Z,1006.43
2023-11-18T23:14:36.669Z,1006.43
2023-11-18T23:16:36.419Z,1006.36
2023-11-18T23:18:37.234Z,1006.36
2023-11-18T23:20:36.312Z,1006.41
2023-11-18T23:22:36.929Z,1006.41
2023-11-18T23:24:36.503Z,1006.46
2023-11-18T23:26:36.049Z,1006.46
2023-11-18T23:28:38.294Z,1006.2
2023-11-18T23:30:36.478Z,1006.2
2023-11-18T23:32:36.979Z,1006.08
2023-11-18T23:34:36.760Z,1006.08
2023-11-18T23:36:35.911Z,1006.23
2023-11-18T23:38:36.643Z,1006.23
2023-11-18T23:40:36.428Z,1005.99
2023-11-18T23:42:36.027Z,1005.99
2023-11-18T23:44:37.183Z,1005.9
2023-11-18T23:46:36.883Z,1005.9
2023-11-18T23:48:36.058Z,1005.88
2023-11-18T23:50:37.024Z,1005.88
2023-11-18T23:52:36.502Z,1005.89
2023-11-18T23:54:36.079Z,1005.89
2023-11-18T23:56:36.559Z,1005.77
2023-11-18T23:58:36.798Z,1005.77
